Time;durP1;ratioP1;P1;durP2;ratioP2;P2;SDS_P1;SDS_P2;PMS_P1;PMS_P2;Temp;Humidity;BMP_temperature;BMP_pressure;BME280_temperature;BME280_humidity;BME280_pressure;Samples;Min_cycle;Max_cycle;Signal;HPM_P1;HPM_P2
2021/08/14 00:00:41;;;;;;;3.90;3.00;;;15.30;72.70;;;;;;5017893;27;96109;-55
2021/08/14 00:03:11;;;;;;;5.50;3.33;;;15.20;72.50;;;;;;5024587;28;95701;-54
2021/08/14 00:05:41;;;;;;;4.75;2.97;;;15.30;72.50;;;;;;5006412;27;95793;-56
2021/08/14 00:08:12;;;;;;;3.30;3.00;;;15.30;72.40;;;;;;5025994;28;95584;-51
2021/08/14 00:10:43;;;;;;;3.92;3.35;;;15.40;72.20;;;;;;5025806;27;96902;-53
2021/08/14 00:13:13;;;;;;;4.60;3.67;;;15.50;72.00;;;;;;5023946;27;95848;-50
2021/08/14 00:15:45;;;;;;;3.97;3.03;;;15.50;71.90;;;;;;5018629;27;96498;-50
2021/08/14 00:18:16;;;;;;;5.03;3.15;;;15.60;71.40;;;;;;5025525;27;95982;-55
2021/08/14 00:20:47;;;;;;;3.58;3.15;;;15.60;71.30;;;;;;5025438;28;96488;-50
2021/08/14 00:23:17;;;;;;;2.95;2.50;;;15.60;71.00;;;;;;5025719;27;96030;-52
2021/08/14 00:25:48;;;;;;;3.37;3.07;;;15.70;70.80;;;;;;5024389;27;95704;-55
2021/08/14 00:28:19;;;;;;;4.30;3.00;;;15.70;70.80;;;;;;5024353;27;96131;-51
2021/08/14 00:30:53;;;;;;;3.10;2.80;;;15.80;70.70;;;;;;5018206;28;96382;-51
2021/08/14 00:33:24;;;;;;;4.55;2.97;;;15.70;70.50;;;;;;5004536;27;95838;-50
2021/08/14 00:35:56;;;;;;;4.18;3.33;;;15.70;70.50;;;;;;5010238;28;95870;-50
2021/08/14 00:38:26;;;;;;;6.03;3.07;;;15.80;70.80;;;;;;5024605;27;96652;-49
2021/08/14 00:40:56;;;;;;;4.28;3.08;;;15.90;70.70;;;;;;5023736;28;95935;-52
2021/08/14 00:43:28;;;;;;;4.03;3.50;;;15.90;70.60;;;;;;5023867;27;95379;-48
2021/08/14 00:46:00;;;;;;;;;;;16.00;70.50;;;;;;5019242;28;95699;-54
2021/08/14 00:48:36;;;;;;;4.28;3.17;;;16.10;70.30;;;;;;5024796;27;95801;-54
2021/08/14 00:51:09;;;;;;;5.38;3.00;;;16.20;70.40;;;;;;5022060;27;95983;-56
2021/08/14 00:53:40;;;;;;;4.63;3.50;;;16.20;70.30;;;;;;5003808;28;97509;-56
2021/08/14 00:56:10;;;;;;;;;;;16.20;70.20;;;;;;5024451;27;95327;-57
2021/08/14 00:58:40;;;;;;;5.35;3.80;;;16.30;70.10;;;;;;5026855;27;96553;-56
2021/08/14 01:01:10;;;;;;;4.43;3.30;;;16.40;70.00;;;;;;5001540;28;95837;-56
2021/08/14 01:03:41;;;;;;;5.57;3.45;;;16.30;69.70;;;;;;5020760;27;95935;-57
2021/08/14 01:06:16;;;;;;;4.35;3.42;;;16.40;69.80;;;;;;5038771;27;95840;-52
2021/08/14 01:08:51;;;;;;;4.95;4.00;;;16.50;69.70;;;;;;5024097;27;95870;-55
2021/08/14 01:11:23;;;;;;;4.45;3.25;;;16.50;69.60;;;;;;5024131;27;96446;-54
2021/08/14 01:13:54;;;;;;;4.22;3.20;;;16.50;69.50;;;;;;5023866;27;96531;-55
2021/08/14 01:16:27;;;;;;;4.70;3.50;;;16.60;69.40;;;;;;5020026;28;95550;-55
2021/08/14 01:18:58;;;;;;;4.68;3.55;;;16.60;69.30;;;;;;5023457;27;95862;-55
2021/08/14 01:21:29;;;;;;;;;;;16.60;69.30;;;;;;5037756;27;98368;-53
2021/08/14 01:24:02;;;;;;;3.25;2.92;;;16.70;69.10;;;;;;5025478;27;95388;-55
2021/08/14 01:26:33;;;;;;;3.78;3.13;;;16.70;69.10;;;;;;5024354;28;95818;-54
2021/08/14 01:29:04;;;;;;;4.30;3.70;;;16.80;68.90;;;;;;5024527;27;97834;-53
2021/08/14 01:31:35;;;;;;;4.57;3.53;;;16.80;68.80;;;;;;5018295;27;95995;-53
2021/08/14 01:34:07;;;;;;;4.93;4.00;;;16.90;68.80;;;;;;5016261;27;96481;-55
2021/08/14 01:36:38;;;;;;;6.63;3.85;;;16.90;68.60;;;;;;5010602;27;95812;-54
2021/08/14 01:39:13;;;;;;;4.72;3.75;;;17.00;68.60;;;;;;5023137;27;95398;-54
2021/08/14 01:41:58;;;;;;;5.53;3.90;;;17.00;68.50;;;;;;5000242;28;96333;-53
2021/08/14 01:44:30;;;;;;;6.13;4.68;;;17.00;68.40;;;;;;5023041;27;96354;-54
2021/08/14 01:47:01;;;;;;;7.57;5.40;;;17.10;68.40;;;;;;5001296;28;98559;-54
2021/08/14 01:49:32;;;;;;;9.10;5.20;;;17.10;68.30;;;;;;5023614;28;95920;-52
2021/08/14 01:52:17;;;;;;;9.20;5.25;;;17.10;68.30;;;;;;5022175;27;96548;-52
2021/08/14 01:54:49;;;;;;;6.28;4.72;;;17.10;68.30;;;;;;5023612;28;99229;-57
2021/08/14 01:57:20;;;;;;;6.28;5.03;;;17.20;68.20;;;;;;5021532;27;95884;-54
2021/08/14 01:59:49;;;;;;;8.13;5.18;;;17.20;68.10;;;;;;5020614;27;96052;-55
2021/08/14 02:02:19;;;;;;;8.30;4.97;;;17.20;68.00;;;;;;5017419;27;96568;-52
2021/08/14 02:04:49;;;;;;;7.03;4.90;;;17.30;68.50;;;;;;5004713;27;96309;-55
2021/08/14 02:07:19;;;;;;;6.53;4.57;;;17.30;67.90;;;;;;5022775;27;96307;-55
2021/08/14 02:09:50;;;;;;;6.38;4.85;;;17.30;67.80;;;;;;5022898;27;95975;-53
2021/08/14 02:12:20;;;;;;;5.93;4.43;;;17.30;67.70;;;;;;5022213;27;96651;-52
2021/08/14 02:14:51;;;;;;;6.72;5.28;;;17.40;67.70;;;;;;5021461;27;95846;-52
2021/08/14 02:17:23;;;;;;;;;;;17.40;67.70;;;;;;5016315;27;95875;-59
2021/08/14 02:19:55;;;;;;;6.63;4.70;;;17.40;67.60;;;;;;5023986;27;96268;-55
2021/08/14 02:22:25;;;;;;;5.85;4.55;;;17.50;67.50;;;;;;5004330;27;96230;-54
2021/08/14 02:24:56;;;;;;;9.30;5.43;;;17.40;67.40;;;;;;5021979;27;96384;-54
2021/08/14 02:27:27;;;;;;;6.32;5.03;;;17.50;67.30;;;;;;5021778;27;95960;-54
2021/08/14 02:29:58;;;;;;;5.97;4.57;;;17.50;67.40;;;;;;5022708;27;95921;-56
2021/08/14 02:32:29;;;;;;;6.32;4.60;;;17.50;67.30;;;;;;5017224;27;96490;-53
2021/08/14 02:35:01;;;;;;;7.00;5.07;;;17.60;67.30;;;;;;5010596;27;96447;-53
2021/08/14 02:37:32;;;;;;;5.05;4.40;;;17.60;67.30;;;;;;5016570;27;95769;-51
2021/08/14 02:40:02;;;;;;;5.83;4.43;;;17.70;67.40;;;;;;5020775;27;95750;-52
2021/08/14 02:42:34;;;;;;;4.68;4.18;;;17.80;67.40;;;;;;5023147;27;96479;-50
2021/08/14 02:45:05;;;;;;;7.03;4.33;;;17.90;67.40;;;;;;5020985;27;96454;-51
2021/08/14 02:47:37;;;;;;;7.20;4.75;;;18.10;67.30;;;;;;5024357;27;96171;-52
2021/08/14 02:50:08;;;;;;;4.33;3.93;;;18.20;67.00;;;;;;5023876;27;97152;-53
2021/08/14 02:52:39;;;;;;;5.15;4.47;;;18.30;66.90;;;;;;4990327;27;96032;-53
2021/08/14 02:55:10;;;;;;;6.07;4.55;;;18.30;66.70;;;;;;5023413;27;97271;-52
2021/08/14 02:57:40;;;;;;;4.90;3.58;;;18.40;66.60;;;;;;5017587;27;95672;-53
2021/08/14 03:00:11;;;;;;;3.72;3.33;;;18.50;66.40;;;;;;5004458;27;97759;-53
2021/08/14 03:02:41;;;;;;;3.70;3.40;;;18.60;66.30;;;;;;5036754;27;95977;-51
2021/08/14 03:05:13;;;;;;;4.82;3.58;;;18.70;66.30;;;;;;5023861;27;96586;-56
2021/08/14 03:07:44;;;;;;;3.90;3.60;;;18.80;66.00;;;;;;5022434;27;95912;-57
2021/08/14 03:10:14;;;;;;;;;;;18.90;65.90;;;;;;5022932;27;95747;-56
2021/08/14 03:12:45;;;;;;;4.38;3.85;;;19.00;65.60;;;;;;5014788;28;95984;-58
2021/08/14 03:15:16;;;;;;;4.50;3.33;;;19.00;65.40;;;;;;5001169;28;96719;-57
2021/08/14 03:17:47;;;;;;;4.03;3.63;;;19.00;65.30;;;;;;5022510;27;97242;-54
2021/08/14 03:20:17;;;;;;;3.75;3.28;;;19.10;65.10;;;;;;5038000;27;96159;-57
2021/08/14 03:22:49;;;;;;;3.40;3.10;;;19.10;65.10;;;;;;5022030;27;95909;-57
2021/08/14 03:25:20;;;;;;;3.25;2.95;;;19.10;64.90;;;;;;5020981;27;96149;-57
2021/08/14 03:27:51;;;;;;;3.63;3.33;;;19.20;65.00;;;;;;5022561;27;95865;-58
2021/08/14 03:30:23;;;;;;;4.68;3.30;;;19.20;65.00;;;;;;5035491;27;96129;-55
2021/08/14 03:32:53;;;;;;;;;;;19.30;65.20;;;;;;5022456;27;103559;-55
2021/08/14 03:35:25;;;;;;;3.85;3.42;;;19.30;64.80;;;;;;5013343;27;95919;-57
2021/08/14 03:37:55;;;;;;;4.30;3.70;;;19.30;64.70;;;;;;5021417;27;95813;-57
2021/08/14 03:40:25;;;;;;;3.53;3.22;;;19.30;64.60;;;;;;5023239;27;96167;-57
2021/08/14 03:42:55;;;;;;;3.50;3.20;;;19.40;64.60;;;;;;5021369;27;96492;-57
2021/08/14 03:45:25;;;;;;;3.88;2.83;;;19.40;64.30;;;;;;5017225;27;96156;-57
2021/08/14 03:47:56;;;;;;;3.10;2.80;;;19.40;64.20;;;;;;5021034;27;95931;-57
2021/08/14 03:50:27;;;;;;;4.75;3.47;;;19.40;64.10;;;;;;5003274;27;96002;-55
2021/08/14 03:52:58;;;;;;;3.05;2.75;;;19.40;64.00;;;;;;5021835;27;95926;-57
2021/08/14 03:55:28;;;;;;;6.05;3.25;;;19.40;64.10;;;;;;5022496;27;96652;-57
2021/08/14 03:57:58;;;;;;;3.28;2.97;;;19.40;64.40;;;;;;5021241;27;95942;-52
2021/08/14 04:00:28;;;;;;;3.95;3.38;;;19.50;64.80;;;;;;5000486;27;96167;-55
2021/08/14 04:02:58;;;;;;;3.20;2.90;;;19.50;65.00;;;;;;5022508;27;96893;-56
2021/08/14 04:05:29;;;;;;;2.70;2.50;;;19.60;65.10;;;;;;5022107;27;96275;-55
2021/08/14 04:08:00;;;;;;;3.22;2.70;;;19.60;65.10;;;;;;5023760;27;95922;-52
2021/08/14 04:10:31;;;;;;;3.22;2.92;;;19.70;65.30;;;;;;5024963;27;96082;-53
2021/08/14 04:13:04;;;;;;;5.32;3.15;;;19.70;65.40;;;;;;5038053;27;97478;-53
2021/08/14 04:15:35;;;;;;;3.10;2.53;;;19.80;65.30;;;;;;5017286;27;95897;-52
2021/08/14 04:18:08;;;;;;;3.35;3.05;;;19.80;65.50;;;;;;5022894;27;96302;-53
2021/08/14 04:20:40;;;;;;;4.90;4.00;;;19.90;65.80;;;;;;5038760;27;96127;-53
2021/08/14 04:23:12;;;;;;;5.95;3.80;;;19.80;62.90;;;;;;5021811;27;96857;-54
2021/08/14 04:25:44;;;;;;;5.80;4.43;;;19.50;63.30;;;;;;5022288;27;95958;-55
2021/08/14 04:28:16;;;;;;;8.73;4.45;;;19.40;64.00;;;;;;5022630;27;95829;-57
2021/08/14 04:30:49;;;;;;;5.93;4.50;;;19.20;64.50;;;;;;5016773;27;95870;-55
2021/08/14 04:33:21;;;;;;;6.25;4.90;;;19.20;64.50;;;;;;5021678;27;95983;-56
2021/08/14 04:35:51;;;;;;;6.07;4.80;;;19.10;64.60;;;;;;5010448;27;96613;-52
2021/08/14 04:38:21;;;;;;;4.97;4.20;;;19.00;64.70;;;;;;5024135;27;96610;-55
2021/08/14 04:40:51;;;;;;;5.53;4.60;;;18.90;64.90;;;;;;5023547;27;95752;-54
2021/08/14 04:43:21;;;;;;;6.63;4.57;;;18.90;65.20;;;;;;5022764;27;95844;-53
2021/08/14 04:45:51;;;;;;;5.75;4.00;;;18.80;65.30;;;;;;5017411;27;95577;-54
2021/08/14 04:48:23;;;;;;;5.17;4.33;;;18.80;65.50;;;;;;5000989;27;97330;-53
2021/08/14 04:50:53;;;;;;;5.07;4.43;;;18.80;65.50;;;;;;5020120;27;96598;-57
2021/08/14 04:53:24;;;;;;;7.28;4.70;;;18.80;65.50;;;;;;5021705;27;96403;-52
2021/08/14 04:55:55;;;;;;;4.88;4.03;;;18.70;65.40;;;;;;5022641;27;96409;-53
2021/08/14 04:58:26;;;;;;;7.30;4.13;;;18.70;65.70;;;;;;5022918;27;97127;-55
2021/08/14 05:00:56;;;;;;;4.70;3.60;;;18.70;65.60;;;;;;5000593;27;95831;-56
2021/08/14 05:03:27;;;;;;;5.68;4.35;;;18.70;65.70;;;;;;5005372;28;98037;-56
2021/08/14 05:05:57;;;;;;;4.93;3.92;;;18.70;65.70;;;;;;4985024;28;98432;-55
2021/08/14 05:08:28;;;;;;;7.40;4.20;;;18.70;65.90;;;;;;5022171;27;96383;-56
2021/08/14 05:10:59;;;;;;;6.85;4.20;;;18.70;65.90;;;;;;5005013;28;95392;-54
2021/08/14 05:13:29;;;;;;;4.18;3.45;;;18.70;65.90;;;;;;5021437;27;96324;-54
2021/08/14 05:16:01;;;;;;;5.18;4.32;;;18.70;66.00;;;;;;5016725;27;95956;-55
2021/08/14 05:18:32;;;;;;;6.03;4.22;;;18.70;66.10;;;;;;5020224;27;95236;-56
2021/08/14 05:21:03;;;;;;;7.80;4.63;;;18.70;66.10;;;;;;5021022;27;95772;-53
2021/08/14 05:23:34;;;;;;;5.40;4.07;;;18.70;66.20;;;;;;5020125;27;98930;-56
2021/08/14 05:26:06;;;;;;;4.55;3.38;;;18.70;66.40;;;;;;5020553;27;95443;-56
2021/08/14 05:28:38;;;;;;;5.47;4.03;;;18.70;66.50;;;;;;5023561;27;96453;-55
2021/08/14 05:31:09;;;;;;;4.80;3.60;;;18.70;66.60;;;;;;5019026;27;96097;-55
2021/08/14 05:33:40;;;;;;;5.10;3.85;;;18.60;66.50;;;;;;5018517;27;96346;-57
2021/08/14 05:36:14;;;;;;;5.57;3.78;;;18.60;66.80;;;;;;4995013;27;97986;-56
2021/08/14 05:38:44;;;;;;;4.25;3.40;;;18.60;66.80;;;;;;4987157;27;96248;-55
2021/08/14 05:41:14;;;;;;;4.22;3.25;;;18.60;66.90;;;;;;5021699;27;95910;-53
2021/08/14 05:43:44;;;;;;;5.32;3.65;;;18.60;67.00;;;;;;5022031;27;96135;-54
2021/08/14 05:46:14;;;;;;;4.00;3.00;;;18.60;67.30;;;;;;5018545;27;95453;-53
2021/08/14 05:48:45;;;;;;;3.67;3.22;;;18.50;67.40;;;;;;5003867;27;95975;-55
2021/08/14 05:51:16;;;;;;;4.50;2.67;;;18.60;67.50;;;;;;5021129;27;95842;-57
2021/08/14 05:53:47;;;;;;;4.65;3.40;;;18.50;67.50;;;;;;5018442;27;97155;-56
2021/08/14 05:56:18;;;;;;;4.03;3.50;;;18.50;67.60;;;;;;5019836;27;99003;-53
2021/08/14 05:58:49;;;;;;;5.25;3.45;;;18.50;67.90;;;;;;5004074;28;95928;-51
2021/08/14 06:01:19;;;;;;;4.67;3.33;;;18.50;67.90;;;;;;5015979;27;95874;-52
2021/08/14 06:03:49;;;;;;;4.38;2.78;;;18.40;67.80;;;;;;5019373;27;97351;-52
2021/08/14 06:06:20;;;;;;;4.28;3.25;;;18.40;67.80;;;;;;5025412;27;96997;-52
2021/08/14 06:08:50;;;;;;;;;;;18.40;67.70;;;;;;5021724;27;95904;-53
2021/08/14 06:11:21;;;;;;;3.72;2.97;;;18.40;67.90;;;;;;5023783;27;96536;-53
2021/08/14 06:13:51;;;;;;;4.60;3.03;;;18.40;68.00;;;;;;5020730;27;96672;-52
2021/08/14 06:16:22;;;;;;;4.45;3.30;;;18.40;68.10;;;;;;5017100;27;95470;-52
2021/08/14 06:18:53;;;;;;;3.63;2.95;;;18.30;68.10;;;;;;5025168;27;96392;-54
2021/08/14 06:21:24;;;;;;;4.55;3.13;;;18.30;68.10;;;;;;5026152;27;95734;-54
2021/08/14 06:23:54;;;;;;;5.28;3.20;;;18.30;68.10;;;;;;5024236;27;96770;-54
2021/08/14 06:26:28;;;;;;;4.00;3.22;;;18.30;68.30;;;;;;5023796;27;95940;-52
2021/08/14 06:28:59;;;;;;;;;;;18.30;68.30;;;;;;5024751;27;95810;-54
2021/08/14 06:31:30;;;;;;;3.97;3.05;;;18.20;68.30;;;;;;5021937;27;95873;-54
2021/08/14 06:34:03;;;;;;;4.30;2.95;;;18.20;68.40;;;;;;5018094;27;96665;-52
2021/08/14 06:36:34;;;;;;;5.85;3.60;;;18.10;68.50;;;;;;5010802;27;95850;-54
2021/08/14 06:39:04;;;;;;;7.88;3.13;;;18.10;68.40;;;;;;5024409;27;96055;-54
2021/08/14 06:41:35;;;;;;;5.50;3.17;;;18.10;68.50;;;;;;5026554;27;95699;-55
2021/08/14 06:44:06;;;;;;;3.38;2.92;;;18.10;68.60;;;;;;5024306;27;95967;-53
2021/08/14 06:46:36;;;;;;;3.33;2.77;;;18.10;68.70;;;;;;5018346;27;95917;-56
2021/08/14 06:49:11;;;;;;;2.70;2.50;;;18.00;68.60;;;;;;5024905;27;95209;-54
2021/08/14 06:51:41;;;;;;;3.67;2.90;;;18.00;68.70;;;;;;5025627;27;95354;-55
2021/08/14 06:54:12;;;;;;;3.72;2.70;;;18.00;68.80;;;;;;5005814;27;96132;-54
2021/08/14 06:56:44;;;;;;;3.45;2.60;;;18.00;68.90;;;;;;5004423;27;95979;-54
2021/08/14 06:59:13;;;;;;;3.20;2.53;;;18.00;68.90;;;;;;5023986;27;95986;-55
2021/08/14 07:01:43;;;;;;;4.57;2.80;;;17.90;68.90;;;;;;5018703;27;97489;-51
2021/08/14 07:04:13;;;;;;;2.97;2.63;;;18.00;69.00;;;;;;5023548;27;96654;-57
2021/08/14 07:06:45;;;;;;;3.27;2.50;;;18.00;69.30;;;;;;5024418;27;95621;-54
2021/08/14 07:09:15;;;;;;;4.13;2.97;;;18.00;69.50;;;;;;5025615;27;95780;-54
2021/08/14 07:11:47;;;;;;;4.30;3.00;;;18.00;69.80;;;;;;5026249;28;96233;-54
2021/08/14 07:14:16;;;;;;;5.63;2.85;;;18.00;69.40;;;;;;5025470;27;96711;-54
2021/08/14 07:16:47;;;;;;;4.20;2.53;;;17.90;69.50;;;;;;5020835;27;96325;-54
2021/08/14 07:19:19;;;;;;;7.85;3.25;;;17.90;69.30;;;;;;5024051;27;95444;-52
2021/08/14 07:21:49;;;;;;;5.22;3.00;;;17.90;69.30;;;;;;5025760;28;96028;-54
2021/08/14 07:24:19;;;;;;;4.35;3.22;;;17.90;69.20;;;;;;5023177;27;96611;-51
2021/08/14 07:26:50;;;;;;;5.67;3.00;;;17.90;69.30;;;;;;5021222;27;95403;-54
2021/08/14 07:29:21;;;;;;;4.03;3.33;;;17.90;69.30;;;;;;5022300;27;95304;-54
2021/08/14 07:31:52;;;;;;;5.30;3.10;;;17.80;69.30;;;;;;5018874;27;95739;-53
2021/08/14 07:34:23;;;;;;;4.68;3.17;;;17.80;69.40;;;;;;5015954;27;96646;-51
2021/08/14 07:36:54;;;;;;;3.10;2.78;;;17.80;69.60;;;;;;5009532;27;96952;-54
2021/08/14 07:39:26;;;;;;;3.42;3.13;;;17.80;69.60;;;;;;5023028;27;96235;-51
2021/08/14 07:41:56;;;;;;;5.57;2.97;;;17.70;69.60;;;;;;5023683;27;96333;-53
2021/08/14 07:44:26;;;;;;;4.88;2.95;;;17.70;69.60;;;;;;5024229;27;96917;-54
2021/08/14 07:47:17;;;;;;;5.00;3.50;;;17.70;69.60;;;;;;5016897;27;95956;-55
2021/08/14 07:49:48;;;;;;;6.18;3.97;;;17.70;69.60;;;;;;5006429;28;96048;-54
2021/08/14 07:52:18;;;;;;;7.55;4.78;;;17.60;69.60;;;;;;5023743;28;96532;-54
2021/08/14 07:54:49;;;;;;;10.00;5.18;;;17.60;69.60;;;;;;5022744;27;95880;-52
2021/08/14 07:57:19;;;;;;;5.55;4.28;;;17.60;69.60;;;;;;5023890;27;95839;-51
2021/08/14 07:59:49;;;;;;;7.72;4.18;;;17.60;69.70;;;;;;5025388;27;95848;-54
2021/08/14 08:02:18;;;;;;;7.38;4.30;;;17.50;69.70;;;;;;5002058;28;96049;-57
2021/08/14 08:04:48;;;;;;;7.50;5.22;;;17.50;69.70;;;;;;5023803;27;96674;-50
2021/08/14 08:07:21;;;;;;;6.35;4.65;;;17.50;70.40;;;;;;5022674;27;95376;-54
2021/08/14 08:09:53;;;;;;;6.35;4.65;;;17.40;69.70;;;;;;5022690;27;96520;-54
2021/08/14 08:12:23;;;;;;;8.15;4.40;;;17.40;69.70;;;;;;5024561;27;95787;-55
2021/08/14 08:14:55;;;;;;;6.28;4.78;;;17.40;69.70;;;;;;5022584;27;96920;-54
2021/08/14 08:17:27;;;;;;;7.53;4.63;;;17.40;69.80;;;;;;5019080;27;96246;-54
2021/08/14 08:20:01;;;;;;;4.97;4.00;;;17.40;69.70;;;;;;5024113;27;95939;-53
2021/08/14 08:22:33;;;;;;;6.65;5.55;;;17.30;69.70;;;;;;5024406;27;96010;-52
2021/08/14 08:25:06;;;;;;;5.95;4.88;;;17.30;69.70;;;;;;5039662;27;98261;-51
2021/08/14 08:27:41;;;;;;;7.70;4.80;;;17.30;69.70;;;;;;5023321;28;95842;-52
2021/08/14 08:30:15;;;;;;;7.03;4.68;;;17.30;69.80;;;;;;5020807;27;97896;-53
2021/08/14 08:32:46;;;;;;;7.07;4.85;;;17.20;69.70;;;;;;5023063;27;96396;-54
2021/08/14 08:35:17;;;;;;;5.43;3.72;;;17.20;69.80;;;;;;5009626;27;95933;-53
2021/08/14 08:37:48;;;;;;;5.05;4.25;;;17.20;69.70;;;;;;5019176;27;95697;-51
2021/08/14 08:40:20;;;;;;;5.45;4.10;;;17.30;69.60;;;;;;5022901;27;96328;-55
2021/08/14 08:42:50;;;;;;;;;;;17.30;69.50;;;;;;5023754;27;95877;-52
2021/08/14 08:45:21;;;;;;;4.72;4.20;;;17.40;69.60;;;;;;5001907;28;96771;-55
2021/08/14 08:47:56;;;;;;;7.03;3.80;;;17.40;69.50;;;;;;5024630;27;96927;-56
2021/08/14 08:50:30;;;;;;;5.10;4.30;;;17.40;69.60;;;;;;5006514;28;95935;-54
2021/08/14 08:53:04;;;;;;;6.13;3.85;;;17.50;69.60;;;;;;5024285;27;95337;-53
2021/08/14 08:55:37;;;;;;;5.47;3.30;;;17.50;69.50;;;;;;5006426;28;95939;-52
2021/08/14 08:58:07;;;;;;;4.45;3.17;;;17.50;69.50;;;;;;5024127;27;95626;-52
2021/08/14 09:00:37;;;;;;;4.18;3.28;;;17.60;69.40;;;;;;5018792;27;96760;-54
2021/08/14 09:03:15;;;;;;;4.47;3.40;;;17.60;69.30;;;;;;5024471;27;95903;-55
2021/08/14 09:05:49;;;;;;;3.85;3.13;;;17.60;69.40;;;;;;5023835;28;95920;-54
2021/08/14 09:08:20;;;;;;;5.13;3.13;;;17.70;69.40;;;;;;5024676;27;95958;-51
2021/08/14 09:11:06;;;;;;;3.22;2.92;;;17.70;69.40;;;;;;5006386;28;95924;-54
2021/08/14 09:13:36;;;;;;;4.20;3.65;;;17.60;69.40;;;;;;5024161;27;96392;-54
2021/08/14 09:16:23;;;;;;;4.68;3.42;;;17.60;69.40;;;;;;5017439;28;95870;-55
2021/08/14 09:18:58;;;;;;;3.72;3.05;;;17.60;69.40;;;;;;5023505;27;95792;-52
2021/08/14 09:21:37;;;;;;;4.43;3.13;;;17.60;69.40;;;;;;5024253;28;95812;-53
2021/08/14 09:24:10;;;;;;;3.33;3.03;;;17.60;69.40;;;;;;5039241;27;96766;-53
2021/08/14 09:26:46;;;;;;;3.08;2.72;;;17.60;69.40;;;;;;5036350;27;96472;-56
2021/08/14 09:29:16;;;;;;;3.88;2.97;;;17.60;69.40;;;;;;5020680;27;95761;-54
2021/08/14 09:31:57;;;;;;;3.22;2.55;;;17.60;69.40;;;;;;5016576;27;95903;-54
2021/08/14 09:34:30;;;;;;;4.53;3.20;;;17.50;69.30;;;;;;5011906;27;96350;-55
2021/08/14 09:37:07;;;;;;;3.40;3.10;;;17.50;69.30;;;;;;5012268;27;95978;-52
2021/08/14 09:40:02;;;;;;;6.78;3.45;;;17.50;69.40;;;;;;5023735;27;96043;-55
2021/08/14 09:42:50;;;;;;;3.92;3.13;;;17.40;69.50;;;;;;4988184;28;95603;-53
2021/08/14 09:45:20;;;;;;;5.43;3.13;;;17.40;69.60;;;;;;5017543;27;95864;-55
2021/08/14 09:47:53;;;;;;;6.13;3.30;;;17.40;69.50;;;;;;5019794;27;96575;-55
2021/08/14 09:50:37;;;;;;;3.65;3.08;;;17.40;69.70;;;;;;5021512;27;95321;-55
2021/08/14 09:53:29;;;;;;;3.45;2.72;;;17.30;70.00;;;;;;5026062;28;95606;-55
2021/08/14 09:56:11;;;;;;;5.05;3.10;;;17.30;70.80;;;;;;5021376;27;95250;-56
2021/08/14 09:58:41;;;;;;;4.72;3.28;;;17.20;70.30;;;;;;5015834;27;95993;-53
2021/08/14 10:01:11;;;;;;;4.00;3.20;;;17.10;70.50;;;;;;5002974;27;97370;-54
2021/08/14 10:03:42;;;;;;;5.38;3.50;;;17.10;70.80;;;;;;5025110;27;95367;-55
2021/08/14 10:06:14;;;;;;;3.42;2.67;;;17.00;71.00;;;;;;5023431;27;96382;-57
2021/08/14 10:08:44;;;;;;;5.50;3.20;;;17.00;71.10;;;;;;5022850;27;96445;-57
2021/08/14 10:11:16;;;;;;;4.40;3.10;;;17.00;71.20;;;;;;5024454;27;96064;-57
2021/08/14 10:13:47;;;;;;;3.65;3.10;;;16.90;71.40;;;;;;5022706;27;95312;-54
2021/08/14 10:16:19;;;;;;;5.30;3.28;;;16.90;71.50;;;;;;5024998;27;95578;-55
2021/08/14 10:18:54;;;;;;;4.32;3.10;;;16.80;71.60;;;;;;5039197;27;96431;-56
2021/08/14 10:21:26;;;;;;;5.55;3.40;;;16.70;71.70;;;;;;5025614;27;95796;-56
2021/08/14 10:23:56;;;;;;;4.10;3.08;;;16.80;71.90;;;;;;5026955;28;95758;-56
2021/08/14 10:26:29;;;;;;;4.00;3.60;;;16.70;71.80;;;;;;5028700;27;95617;-56
2021/08/14 10:29:02;;;;;;;3.95;3.40;;;16.70;71.90;;;;;;5024649;27;96653;-56
2021/08/14 10:31:37;;;;;;;4.82;3.50;;;16.60;71.90;;;;;;5038166;27;98090;-56
2021/08/14 10:34:11;;;;;;;6.10;3.38;;;16.60;71.90;;;;;;5031947;27;96185;-55
2021/08/14 10:36:47;;;;;;;3.72;2.70;;;16.60;71.90;;;;;;5014369;27;96152;-56
2021/08/14 10:39:25;;;;;;;3.03;2.70;;;16.60;72.10;;;;;;5037127;27;96299;-55
2021/08/14 10:42:01;;;;;;;3.55;3.20;;;16.50;72.20;;;;;;5023019;27;96093;-52
2021/08/14 10:44:50;;;;;;;4.57;3.47;;;16.50;72.30;;;;;;5018885;27;95219;-54
2021/08/14 10:47:35;;;;;;;3.85;3.22;;;16.50;72.40;;;;;;5020003;27;95785;-56
2021/08/14 10:50:06;;;;;;;4.45;3.20;;;16.40;72.40;;;;;;5023961;27;96034;-55
2021/08/14 10:52:40;;;;;;;4.35;3.28;;;16.40;72.40;;;;;;5016993;27;95920;-57
2021/08/14 10:55:13;;;;;;;4.20;3.05;;;16.40;72.50;;;;;;5004489;27;95363;-55
2021/08/14 10:57:48;;;;;;;3.80;2.78;;;16.40;72.70;;;;;;5009591;27;96572;-53
2021/08/14 11:00:23;;;;;;;3.63;3.10;;;16.30;72.70;;;;;;5020815;27;95870;-56
2021/08/14 11:03:08;;;;;;;4.05;3.70;;;16.30;72.80;;;;;;5019974;27;97363;-52
2021/08/14 11:05:43;;;;;;;4.55;3.25;;;16.30;72.90;;;;;;5020629;27;95777;-54
2021/08/14 11:08:31;;;;;;;3.92;2.97;;;16.20;72.80;;;;;;5030331;27;95757;-57
2021/08/14 11:11:26;;;;;;;5.55;3.40;;;16.20;73.00;;;;;;5025511;27;97598;-57
2021/08/14 11:14:11;;;;;;;5.05;3.15;;;16.10;72.90;;;;;;5027316;27;95973;-52
2021/08/14 11:17:11;;;;;;;2.95;2.67;;;16.10;73.10;;;;;;5018496;27;95779;-55
2021/08/14 11:19:44;;;;;;;4.88;3.47;;;16.10;73.20;;;;;;5012769;27;95829;-55
2021/08/14 11:22:29;;;;;;;3.17;2.88;;;16.00;73.20;;;;;;5021845;27;95923;-56
2021/08/14 11:25:02;;;;;;;3.15;2.70;;;16.00;73.20;;;;;;5020256;27;95589;-54
2021/08/14 11:27:35;;;;;;;3.97;2.78;;;16.00;73.30;;;;;;5029699;27;95867;-56
2021/08/14 11:30:10;;;;;;;5.55;3.42;;;16.00;73.40;;;;;;5036536;27;95955;-56
2021/08/14 11:32:43;;;;;;;4.15;2.90;;;15.90;73.40;;;;;;5009059;27;97647;-53
2021/08/14 11:35:18;;;;;;;4.28;2.92;;;15.90;73.40;;;;;;5014233;27;95870;-55
2021/08/14 11:37:56;;;;;;;3.50;3.20;;;15.90;73.40;;;;;;5019673;27;96028;-55
2021/08/14 11:40:50;;;;;;;2.65;2.45;;;15.90;73.50;;;;;;5031500;28;95794;-55
2021/08/14 11:43:20;;;;;;;3.10;2.80;;;15.80;73.40;;;;;;5013253;27;96898;-56
2021/08/14 11:46:03;;;;;;;3.30;3.00;;;15.80;73.50;;;;;;5038028;27;95887;-55
2021/08/14 11:48:44;;;;;;;3.85;2.78;;;15.80;73.60;;;;;;5026275;27;95813;-53
2021/08/14 11:51:24;;;;;;;3.60;2.95;;;15.80;73.70;;;;;;5020314;27;95772;-55
2021/08/14 11:54:08;;;;;;;3.28;2.97;;;15.70;73.60;;;;;;5023850;27;95854;-57
2021/08/14 11:56:40;;;;;;;3.25;2.85;;;15.70;73.90;;;;;;5021357;27;96079;-56
2021/08/14 11:59:11;;;;;;;4.18;3.00;;;15.70;73.90;;;;;;5020533;27;95864;-57
2021/08/14 12:01:51;;;;;;;4.88;3.03;;;15.60;74.00;;;;;;5017695;27;96093;-55
2021/08/14 12:04:23;;;;;;;3.10;2.75;;;15.60;74.00;;;;;;5024651;27;95909;-56
2021/08/14 12:06:57;;;;;;;3.53;2.63;;;15.50;74.00;;;;;;5015801;27;98182;-56
2021/08/14 12:09:28;;;;;;;3.33;2.70;;;15.50;74.10;;;;;;5018483;27;95676;-54
2021/08/14 12:11:59;;;;;;;2.58;2.38;;;15.50;74.10;;;;;;5031797;27;95532;-55
2021/08/14 12:14:30;;;;;;;2.95;2.60;;;15.50;74.20;;;;;;5018258;27;96593;-54
2021/08/14 12:17:02;;;;;;;2.60;2.40;;;15.50;74.10;;;;;;5012560;27;95979;-58
2021/08/14 12:19:34;;;;;;;3.67;2.55;;;15.50;74.20;;;;;;5023070;27;95839;-56
2021/08/14 12:22:11;;;;;;;2.83;2.40;;;15.40;74.20;;;;;;5023949;27;95941;-55
2021/08/14 12:24:44;;;;;;;2.40;2.20;;;15.40;74.30;;;;;;5016743;27;96064;-55
2021/08/14 12:27:33;;;;;;;2.70;2.50;;;15.40;74.30;;;;;;5015563;27;95685;-57
2021/08/14 12:30:24;;;;;;;2.97;2.42;;;15.40;74.40;;;;;;5015621;27;95709;-55
2021/08/14 12:32:56;;;;;;;3.20;2.58;;;15.30;74.50;;;;;;4994080;27;95777;-55
2021/08/14 12:35:27;;;;;;;3.88;2.45;;;15.40;74.40;;;;;;4989641;27;97963;-55
2021/08/14 12:38:07;;;;;;;3.45;2.38;;;15.50;74.50;;;;;;5015234;27;97901;-51
2021/08/14 12:40:41;;;;;;;3.22;2.83;;;15.60;74.20;;;;;;5017001;27;96050;-55
2021/08/14 12:43:22;;;;;;;3.10;2.72;;;15.70;74.10;;;;;;5018597;27;96297;-55
2021/08/14 12:45:53;;;;;;;3.92;2.50;;;15.80;74.00;;;;;;5016512;27;96508;-55
2021/08/14 12:48:24;;;;;;;2.65;2.40;;;15.90;73.80;;;;;;5003477;27;95910;-53
2021/08/14 12:50:55;;;;;;;3.42;2.50;;;16.00;73.60;;;;;;5021565;27;96489;-55
2021/08/14 12:53:27;;;;;;;2.65;2.17;;;16.00;73.50;;;;;;5020458;27;96055;-52
2021/08/14 12:56:10;;;;;;;3.40;2.90;;;16.10;73.40;;;;;;5023324;27;96256;-53
2021/08/14 12:58:41;;;;;;;3.65;2.45;;;16.10;72.90;;;;;;5022741;27;95858;-54
2021/08/14 13:01:21;;;;;;;3.17;2.67;;;16.10;73.00;;;;;;5019966;27;95856;-55
2021/08/14 13:03:51;;;;;;;3.60;2.65;;;16.10;73.10;;;;;;5021670;27;95406;-54
2021/08/14 13:06:23;;;;;;;3.63;2.72;;;16.10;72.80;;;;;;5024629;27;95884;-56
2021/08/14 13:08:54;;;;;;;2.55;2.35;;;16.10;72.70;;;;;;5023627;28;95819;-57
2021/08/14 13:11:25;;;;;;;3.58;2.90;;;16.10;72.80;;;;;;5038306;27;95977;-57
2021/08/14 13:13:57;;;;;;;4.05;2.70;;;16.00;72.80;;;;;;5021752;27;96108;-56
2021/08/14 13:16:27;;;;;;;3.50;2.83;;;16.00;72.80;;;;;;5016799;27;97524;-58